Time;durP1;ratioP1;P1;durP2;ratioP2;P2;SDS_P1;SDS_P2;PMS_P1;PMS_P2;Temp;Humidity;BMP_temperature;BMP_pressure;BME280_temperature;BME280_humidity;BME280_pressure;Samples;Min_cycle;Max_cycle;Signal;HPM_P1;HPM_P2
2023/03/05 00:00:23;;;;;;;22.30;13.40;;;;;;;5.73;68.38;99131.78;5117359;27;41203;-81
2023/03/05 00:02:50;;;;;;;21.47;12.67;;;;;;;5.73;68.26;99131.78;5116638;27;41864;-81
2023/03/05 00:05:18;;;;;;;21.83;12.93;;;;;;;5.73;68.55;99140.50;5116073;27;42886;-80
2023/03/05 00:07:47;;;;;;;20.57;13.10;;;;;;;5.70;68.34;99130.09;5116588;27;42624;-81
2023/03/05 00:10:15;;;;;;;22.30;12.63;;;;;;;5.73;68.47;99135.25;5134405;27;40119;-83
2023/03/05 00:12:43;;;;;;;21.87;12.87;;;;;;;5.57;68.10;99112.25;5117609;27;40591;-79
2023/03/05 00:15:11;;;;;;;24.47;13.70;;;;;;;5.76;68.44;99135.16;5119050;27;43993;-82
2023/03/05 00:17:39;;;;;;;22.57;14.03;;;;;;;5.76;67.93;99134.28;5134821;27;42576;-81
2023/03/05 00:20:07;;;;;;;22.37;13.43;;;;;;;5.76;68.16;99132.53;5136976;27;40978;-85
2023/03/05 00:22:35;;;;;;;22.10;13.53;;;;;;;5.63;68.12;99112.03;5118239;27;40635;-83
2023/03/05 00:25:05;;;;;;;20.03;13.40;;;;;;;5.77;68.08;99133.38;5136617;27;42313;-79
2023/03/05 00:27:33;;;;;;;25.23;13.80;;;;;;;5.77;68.45;99130.75;5134329;27;42120;-81
2023/03/05 00:30:01;;;;;;;23.50;14.10;;;;;;;5.68;68.69;99110.09;5134299;27;40948;-77
2023/03/05 00:32:28;;;;;;;22.33;13.73;;;;;;;5.75;68.43;99122.06;5134121;27;41697;-80
2023/03/05 00:34:56;;;;;;;24.60;12.83;;;;;;;5.77;68.53;99122.88;5116877;27;42080;-81
2023/03/05 00:37:23;;;;;;;21.10;12.23;;;;;;;5.79;67.96;99115.78;5133811;27;42380;-85
2023/03/05 00:39:51;;;;;;;19.73;12.20;;;;;;;5.80;68.06;99122.75;5134125;27;40142;-83
2023/03/05 00:42:20;;;;;;;22.53;12.83;;;;;;;5.79;68.00;99121.03;5116411;27;43387;-81
2023/03/05 00:44:47;;;;;;;20.37;12.17;;;;;;;5.79;67.93;99123.66;5116320;27;41748;-83
2023/03/05 00:47:17;;;;;;;18.13;12.10;;;;;;;5.75;67.56;99111.56;5115764;27;42645;-81
2023/03/05 00:49:44;;;;;;;19.80;12.07;;;;;;;5.82;67.58;99123.53;5133741;27;39788;-79
2023/03/05 00:52:12;;;;;;;23.57;12.90;;;;;;;5.82;67.37;99118.25;5116143;27;40967;-82
2023/03/05 00:54:40;;;;;;;18.73;11.67;;;;;;;5.82;67.61;99120.03;5116541;27;41568;-80
2023/03/05 00:57:07;;;;;;;23.13;11.60;;;;;;;5.81;67.27;99119.19;5134727;27;42893;-80
2023/03/05 00:59:36;;;;;;;20.33;11.60;;;;;;;5.82;67.31;99120.91;5133729;27;40274;-81
2023/03/05 01:02:04;;;;;;;20.53;11.97;;;;;;;5.81;67.56;99116.56;5133352;27;41747;-81
2023/03/05 01:04:32;;;;;;;17.07;10.37;;;;;;;5.81;67.26;99111.28;5133688;27;41909;-82
2023/03/05 01:06:59;;;;;;;19.20;11.03;;;;;;;5.82;67.09;99102.50;5133104;27;42342;-79
2023/03/05 01:09:27;;;;;;;15.00;9.80;;;;;;;5.85;66.76;99112.91;5133990;27;40089;-79
2023/03/05 01:11:54;;;;;;;17.10;10.90;;;;;;;5.86;66.89;99108.50;5133338;27;41824;-83
2023/03/05 01:14:22;;;;;;;15.33;10.60;;;;;;;5.88;66.98;99110.19;5133443;27;43737;-79
2023/03/05 01:16:51;;;;;;;15.63;9.73;;;;;;;5.83;66.65;99098.97;5132809;27;42179;-84
2023/03/05 01:19:19;;;;;;;15.80;10.50;;;;;;;5.88;66.67;99106.66;5116011;27;39979;-80
2023/03/05 01:21:46;;;;;;;18.57;11.63;;;;;;;5.88;66.90;99101.41;5132881;27;41575;-82
2023/03/05 01:24:14;;;;;;;17.60;11.57;;;;;;;5.87;66.67;99100.56;5115682;27;42541;-83
2023/03/05 01:26:42;;;;;;;18.17;11.50;;;;;;;5.78;67.03;99086.03;5132735;27;42180;-86
2023/03/05 01:29:10;;;;;;;18.70;11.40;;;;;;;5.88;66.90;99096.16;5132093;27;39816;-82
2023/03/05 01:31:37;;;;;;;17.83;11.67;;;;;;;5.88;66.93;99089.16;5115464;27;40670;-81
2023/03/05 01:34:07;;;;;;;18.30;11.80;;;;;;;5.90;66.84;99089.97;5133013;27;44113;-80
2023/03/05 01:36:35;;;;;;;22.20;12.50;;;;;;;5.90;66.62;99087.34;5132550;27;42269;-82
2023/03/05 01:39:02;;;;;;;15.87;11.03;;;;;;;5.87;66.59;99083.94;5133071;27;40738;-80
2023/03/05 01:41:32;;;;;;;18.17;12.00;;;;;;;5.90;66.76;99084.69;5133924;27;41413;-84
2023/03/05 01:44:00;;;;;;;24.37;15.70;;;;;;;5.89;67.16;99077.72;5115511;27;41929;-85
2023/03/05 01:46:33;;;;;;;24.00;15.03;;;;;;;5.90;67.21;99087.34;5115252;27;40718;-80
2023/03/05 01:49:05;;;;;;;24.67;15.97;;;;;;;5.90;66.94;99084.69;5115487;27;40644;-80
2023/03/05 01:51:40;;;;;;;26.60;16.47;;;;;;;5.87;67.34;99074.28;5132797;27;41730;-78
2023/03/05 01:54:11;;;;;;;25.40;15.50;;;;;;;5.92;67.33;99074.13;5125528;27;41391;-78
2023/03/05 01:56:41;;;;;;;35.37;19.37;;;;;;;5.88;67.40;99060.25;5116501;27;41260;-81
2023/03/05 01:59:09;;;;;;;26.17;17.27;;;;;;;5.88;67.41;99060.25;5115673;27;39790;-79
2023/03/05 02:01:40;;;;;;;29.53;18.07;;;;;;;5.91;67.29;99060.13;5132194;27;42419;-84
2023/03/05 02:04:09;;;;;;;26.20;16.67;;;;;;;5.92;68.20;99061.84;5129817;27;42761;-82
2023/03/05 02:06:41;;;;;;;27.80;16.47;;;;;;;5.91;68.16;99057.50;5114745;27;41300;-80
2023/03/05 02:09:09;;;;;;;27.90;17.17;;;;;;;5.90;68.32;99050.53;5115590;27;40166;-81
2023/03/05 02:11:37;;;;;;;28.00;16.97;;;;;;;5.87;68.16;99041.88;5115089;27;42426;-81
2023/03/05 02:14:06;;;;;;;21.90;14.70;;;;;;;5.90;68.25;99047.91;5132873;27;42822;-82
2023/03/05 02:16:35;;;;;;;21.90;15.10;;;;;;;5.86;68.20;99041.03;5114582;27;42965;-78
2023/03/05 02:19:05;;;;;;;22.00;14.93;;;;;;;5.92;67.95;99040.81;5132515;27;40345;-82
2023/03/05 02:21:39;;;;;;;22.67;14.67;;;;;;;5.79;67.95;99018.56;5132301;27;42659;-83
2023/03/05 02:24:07;;;;;;;22.30;14.53;;;;;;;5.92;67.59;99037.34;5130498;27;43772;-81
2023/03/05 02:26:35;;;;;;;23.37;15.37;;;;;;;5.92;67.82;99035.56;5131778;27;42897;-81
2023/03/05 02:29:05;;;;;;;24.13;15.20;;;;;;;5.92;67.89;99032.09;5114768;27;39301;-80
2023/03/05 02:31:32;;;;;;;21.30;13.20;;;;;;;5.92;67.90;99030.31;5114786;27;40359;-81
2023/03/05 02:34:01;;;;;;;22.83;15.10;;;;;;;5.82;67.70;99012.28;5132330;27;42760;-82
2023/03/05 02:36:29;;;;;;;23.50;14.77;;;;;;;5.79;67.37;99008.03;5131717;27;43144;-82
2023/03/05 02:38:58;;;;;;;21.43;14.20;;;;;;;5.77;67.68;99004.63;5133101;27;39998;-83
2023/03/05 02:41:27;;;;;;;23.27;14.97;;;;;;;5.81;68.18;99008.81;5118721;27;40663;-79
2023/03/05 02:43:57;;;;;;;22.57;14.43;;;;;;;5.87;68.16;99020.84;5118561;27;41380;-81
2023/03/05 02:46:24;;;;;;;23.03;14.10;;;;;;;5.86;68.19;99019.13;5135338;27;42354;-80
2023/03/05 09:14:13;;;;;;;2.00;1.37;;;;;;;4.69;71.66;98927.50;5108497;28;20569;-78
2023/03/05 09:16:41;;;;;;;7.80;2.43;;;;;;;5.27;69.51;98943.59;5107278;28;38902;-82
2023/03/05 09:19:11;;;;;;;5.10;1.90;;;;;;;5.72;66.83;98938.25;5108560;28;41732;-80
2023/03/05 09:21:39;;;;;;;3.70;1.93;;;;;;;6.18;65.13;98962.63;5105862;28;44214;-80
2023/03/05 09:24:06;;;;;;;3.97;2.00;;;;;;;6.35;63.70;98941.69;5089789;28;43317;-80
2023/03/05 09:26:34;;;;;;;4.00;2.30;;;;;;;6.69;61.46;98968.22;5106476;28;40926;-82
2023/03/05 09:29:02;;;;;;;4.03;2.00;;;;;;;6.84;60.68;98964.91;5090243;28;41132;-81
2023/03/05 09:31:31;;;;;;;4.47;1.70;;;;;;;7.02;60.20;98963.22;5107964;28;43842;-83
2023/03/05 09:33:58;;;;;;;3.10;1.53;;;;;;;7.18;59.83;98964.19;5088692;28;41335;-84
2023/03/05 09:36:28;;;;;;;2.67;1.87;;;;;;;7.27;58.29;98962.91;5108091;28;40835;-79
2023/03/05 09:38:56;;;;;;;3.17;1.43;;;;;;;7.32;57.22;98981.13;5106384;28;42535;-79
2023/03/05 09:41:33;;;;;;;2.17;1.30;;;;;;;7.38;56.77;98950.06;5108172;28;43678;-83
2023/03/05 09:44:11;;;;;;;2.27;1.50;;;;;;;7.60;56.44;98965.69;5089842;28;40988;-83
2023/03/05 09:46:51;;;;;;;2.43;1.27;;;;;;;7.62;55.23;98957.72;5117228;28;39874;-81
2023/03/05 09:49:28;;;;;;;2.80;1.37;;;;;;;7.75;54.38;98948.28;5111305;28;42216;-82
2023/03/05 09:52:04;;;;;;;4.13;1.50;;;;;;;8.07;53.97;98971.25;5101841;28;43725;-82
2023/03/05 09:54:38;;;;;;;2.00;1.37;;;;;;;8.19;53.44;98957.44;5090337;28;40947;-82
2023/03/05 09:57:14;;;;;;;2.90;1.47;;;;;;;8.50;52.96;98985.78;5090169;28;39113;-80
2023/03/05 09:59:48;;;;;;;3.03;1.20;;;;;;;8.65;52.36;98979.66;5090143;28;40673;-82
2023/03/05 10:02:23;;;;;;;2.87;1.40;;;;;;;8.72;51.85;98966.16;5089286;28;41704;-80
2023/03/05 10:04:55;;;;;;;3.63;1.70;;;;;;;8.85;51.47;98970.72;5086246;28;41031;-84
2023/03/05 10:07:27;;;;;;;4.10;1.77;;;;;;;8.99;50.91;98976.09;5086187;28;40509;-82
2023/03/05 10:09:59;;;;;;;1.83;1.33;;;;;;;9.12;51.26;98978.94;5089270;28;40624;-83
2023/03/05 10:12:41;;;;;;;3.77;1.50;;;;;;;9.25;50.40;98979.13;5103910;28;43662;-82
2023/03/05 10:15:12;;;;;;;2.67;1.43;;;;;;;9.28;49.46;98973.63;5090231;28;42438;-83
2023/03/05 10:17:59;;;;;;;1.57;1.37;;;;;;;9.28;49.59;98973.63;5088904;28;38674;-84
2023/03/05 10:20:50;;;;;;;1.77;1.63;;;;;;;9.27;49.79;98945.53;5101077;28;42622;-80
2023/03/05 10:23:32;;;;;;;2.47;1.23;;;;;;;9.25;48.12;98969.41;5086006;28;41904;-85
2023/03/05 10:26:10;;;;;;;2.53;1.20;;;;;;;9.33;48.19;98982.19;5090320;28;41466;-81
2023/03/05 10:28:47;;;;;;;2.20;1.17;;;;;;;9.36;48.18;98979.38;5092381;28;40188;-81
2023/03/05 10:31:28;;;;;;;1.60;1.10;;;;;;;9.07;48.09;98922.00;5091415;28;41804;-81
2023/03/05 10:34:12;;;;;;;1.87;1.30;;;;;;;9.38;47.56;98977.50;5090005;28;42719;-78
2023/03/05 10:36:57;;;;;;;3.90;1.67;;;;;;;9.30;47.75;98971.75;5075823;28;42395;-81
2023/03/05 10:39:49;;;;;;;4.13;1.73;;;;;;;9.27;48.15;98971.97;5072275;28;39985;-82
2023/03/05 10:42:25;;;;;;;3.37;1.70;;;;;;;9.27;48.33;98954.28;5093732;28;41727;-90
2023/03/05 10:44:56;;;;;;;2.87;1.43;;;;;;;9.27;48.34;98962.22;5072376;28;41980;-82
2023/03/05 10:47:28;;;;;;;4.27;1.93;;;;;;;9.22;47.89;98953.72;5086498;28;42179;-84
2023/03/05 10:49:59;;;;;;;3.10;1.53;;;;;;;8.93;47.77;98910.38;5092754;28;39179;-82
2023/03/05 10:52:33;;;;;;;3.93;1.63;;;;;;;9.27;47.95;98950.81;5092217;28;40594;-79
2023/03/05 10:55:01;;;;;;;1.93;1.50;;;;;;;9.20;47.86;98946.78;5088850;28;42261;-79
2023/03/05 10:57:31;;;;;;;2.00;1.33;;;;;;;9.30;47.68;98943.56;5091904;28;42521;-79
2023/03/05 11:00:16;;;;;;;3.90;1.80;;;;;;;9.34;48.04;98942.44;5075606;28;40390;-79
2023/03/05 11:02:57;;;;;;;3.50;1.63;;;;;;;9.41;48.17;98937.66;5074293;28;41962;-80
2023/03/05 11:05:46;;;;;;;4.23;1.97;;;;;;;9.41;47.76;98935.00;5088962;28;41529;-82
2023/03/05 11:08:29;;;;;;;4.70;2.43;;;;;;;9.36;47.55;98913.28;5091821;28;41221;-79
2023/03/05 11:11:11;;;;;;;4.67;2.40;;;;;;;9.56;47.77;98931.50;5088825;28;39878;-78
2023/03/05 11:13:50;;;;;;;3.93;2.00;;;;;;;9.67;47.42;98915.88;5091843;28;42031;-79
2023/03/05 11:16:20;;;;;;;5.57;2.73;;;;;;;9.72;47.62;98919.13;5091743;28;42649;-80
2023/03/05 11:18:48;;;;;;;3.77;2.47;;;;;;;9.81;47.71;98919.50;5091914;28;41570;-78
2023/03/05 11:21:26;;;;;;;4.17;2.33;;;;;;;9.86;47.53;98910.38;5075056;28;38966;-80
2023/03/05 11:24:05;;;;;;;4.00;2.97;;;;;;;9.85;46.80;98907.81;5087226;28;40645;-80
2023/03/05 11:26:34;;;;;;;4.00;3.00;;;;;;;9.97;47.12;98899.16;5072748;28;42886;-80
2023/03/05 11:29:09;;;;;;;5.57;3.47;;;;;;;9.88;46.93;98868.81;5074449;28;41181;-79
2023/03/05 11:31:37;;;;;;;4.17;3.07;;;;;;;10.04;46.90;98881.97;5089064;28;40898;-78
2023/03/05 11:34:19;;;;;;;6.57;3.57;;;;;;;10.12;46.34;98903.56;5092338;28;41917;-79
2023/03/05 11:37:02;;;;;;;5.13;3.20;;;;;;;10.04;47.08;98903.13;5088581;28;43501;-79
2023/03/05 11:39:34;;;;;;;5.13;2.83;;;;;;;10.02;46.75;98897.06;5071584;28;42173;-79
2023/03/05 11:42:05;;;;;;;6.13;3.33;;;;;;;10.03;46.67;98897.00;5088753;28;40153;-78
2023/03/05 11:44:40;;;;;;;5.40;3.40;;;;;;;10.06;46.62;98890.66;5074558;28;42186;-79
2023/03/05 11:47:19;;;;;;;5.07;3.50;;;;;;;10.05;46.76;98883.69;5074124;28;42444;-78
2023/03/05 11:49:50;;;;;;;4.40;3.10;;;;;;;10.05;46.78;98881.03;5073499;28;42326;-78
2023/03/05 11:52:26;;;;;;;7.60;3.33;;;;;;;10.09;46.99;98871.97;5088424;28;39947;-81
2023/03/05 11:55:02;;;;;;;5.77;3.50;;;;;;;10.01;46.63;98853.91;5086823;28;41742;-77
2023/03/05 11:57:34;;;;;;;3.43;2.50;;;;;;;9.89;46.50;98833.47;5088139;28;42841;-79
2023/03/05 12:00:07;;;;;;;3.23;2.60;;;;;;;9.95;46.46;98848.13;5091265;28;41050;-78
2023/03/05 12:02:37;;;;;;;4.13;2.90;;;;;;;9.94;46.45;98867.59;5075704;28;39233;-80
2023/03/05 12:05:07;;;;;;;4.30;2.77;;;;;;;9.91;46.93;98851.91;5075076;28;41847;-78
2023/03/05 12:07:41;;;;;;;3.70;2.80;;;;;;;9.94;46.51;98851.72;5074647;28;42258;-78
2023/03/05 12:10:16;;;;;;;4.63;3.13;;;;;;;9.91;46.48;98859.84;5074878;28;41124;-78
2023/03/05 12:12:52;;;;;;;6.20;3.37;;;;;;;9.83;46.67;98846.22;5091173;28;41217;-79
2023/03/05 12:15:41;;;;;;;5.70;3.40;;;;;;;9.74;46.75;98845.00;5091421;28;42044;-78
2023/03/05 12:18:18;;;;;;;3.87;3.03;;;;;;;9.56;47.24;98822.25;5074927;28;43092;-80
2023/03/05 12:20:54;;;;;;;6.70;3.50;;;;;;;9.68;47.29;98835.59;5091932;28;43506;-80
2023/03/05 12:23:25;;;;;;;5.27;3.30;;;;;;;9.64;47.21;98836.72;5108174;28;39958;-79
2023/03/05 12:25:56;;;;;;;7.00;3.70;;;;;;;9.57;47.40;98830.09;5102164;28;42359;-78
2023/03/05 12:28:56;;;;;;;7.77;3.37;;;;;;;9.56;47.67;98825.75;5092278;28;41761;-79
2023/03/05 12:31:37;;;;;;;6.30;3.43;;;;;;;9.57;47.63;98814.25;5091560;28;40992;-80
2023/03/05 12:34:43;;;;;;;11.43;3.83;;;;;;;9.63;47.60;98805.97;5074854;28;39006;-80
2023/03/05 12:37:12;;;;;;;9.70;3.40;;;;;;;9.61;47.45;98791.97;5091924;28;41700;-80
2023/03/05 12:39:51;;;;;;;4.80;3.30;;;;;;;9.73;47.71;98775.38;5091867;28;44152;-80
2023/03/05 12:42:55;;;;;;;7.07;3.47;;;;;;;9.94;47.24;98793.53;5089054;28;42027;-80
2023/03/05 12:45:38;;;;;;;13.50;4.33;;;;;;;9.97;46.78;98793.34;5075047;28;39181;-80
2023/03/05 12:48:41;;;;;;;27.80;4.50;;;;;;;10.02;46.83;98797.41;5074541;28;40655;-80
2023/03/05 12:51:15;;;;;;;5.13;3.33;;;;;;;10.04;46.12;98794.66;5091738;28;42935;-80
2023/03/05 12:53:44;;;;;;;6.07;3.43;;;;;;;10.03;46.34;98783.22;5092678;28;41863;-80
2023/03/05 12:56:19;;;;;;;5.70;3.67;;;;;;;10.14;46.48;98785.19;5091992;28;39944;-80
2023/03/05 12:58:51;;;;;;;7.33;3.80;;;;;;;10.13;46.29;98778.25;5089938;28;42686;-80
2023/03/05 13:01:38;;;;;;;5.07;3.23;;;;;;;10.19;45.51;98787.59;5091501;28;43802;-81
2023/03/05 13:04:13;;;;;;;5.13;3.63;;;;;;;10.20;45.23;98784.03;5091131;28;41419;-81
2023/03/05 13:06:41;;;;;;;4.43;3.23;;;;;;;10.23;45.46;98773.25;5074843;28;38700;-80
2023/03/05 13:09:17;;;;;;;5.87;3.77;;;;;;;10.14;45.79;98753.44;5091413;28;42192;-81
2023/03/05 13:11:48;;;;;;;5.13;3.47;;;;;;;10.30;45.52;98777.19;5088626;28;42934;-81
2023/03/05 13:14:30;;;;;;;5.87;3.73;;;;;;;10.21;45.60;98754.81;5074759;28;41568;-81
2023/03/05 13:16:58;;;;;;;4.53;3.13;;;;;;;10.30;45.84;98769.25;5074504;28;38984;-81
2023/03/05 13:19:26;;;;;;;4.93;3.60;;;;;;;10.34;45.23;98766.34;5091544;28;41356;-82
2023/03/05 13:21:59;;;;;;;5.13;3.77;;;;;;;10.34;45.20;98768.13;5091188;28;42900;-79
2023/03/05 13:24:28;;;;;;;5.13;3.40;;;;;;;10.30;45.25;98746.28;5089578;28;43318;-80
2023/03/05 13:26:57;;;;;;;7.13;4.20;;;;;;;10.40;44.77;98765.94;5091253;28;39073;-80
2023/03/05 13:29:29;;;;;;;5.30;4.03;;;;;;;10.42;45.06;98758.75;5091034;28;40412;-82
2023/03/05 13:32:00;;;;;;;5.20;3.43;;;;;;;10.52;45.03;98755.50;5074290;28;41603;-82
2023/03/05 13:34:29;;;;;;;4.90;4.10;;;;;;;10.53;44.54;98766.00;5091715;28;42428;-80
2023/03/05 13:37:00;;;;;;;8.30;4.90;;;;;;;10.59;44.67;98759.47;5092218;28;40909;-81
2023/03/05 13:39:31;;;;;;;6.07;4.50;;;;;;;10.61;44.96;98749.66;5089190;28;42769;-81
2023/03/05 13:42:03;;;;;;;4.30;3.90;;;;;;;10.66;45.03;98751.03;5073996;28;42162;-81
2023/03/05 13:44:32;;;;;;;6.13;4.40;;;;;;;10.62;45.15;98743.41;5074707;28;42923;-81
2023/03/05 13:47:08;;;;;;;4.40;3.40;;;;;;;10.38;44.96;98738.75;5091123;28;40083;-81
2023/03/05 13:49:36;;;;;;;5.73;3.93;;;;;;;10.17;44.84;98736.53;5091209;28;40603;-80
2023/03/05 13:52:04;;;;;;;6.13;4.30;;;;;;;9.93;45.42;98730.97;5073797;28;42122;-79
2023/03/05 13:54:33;;;;;;;6.50;4.50;;;;;;;9.71;45.79;98734.94;5073682;28;41309;-81
2023/03/05 13:57:07;;;;;;;6.70;4.60;;;;;;;9.53;46.52;98738.69;5073635;28;40186;-80
2023/03/05 13:59:37;;;;;;;6.10;4.20;;;;;;;9.35;46.32;98727.44;5092200;28;40622;-81
2023/03/05 14:02:16;;;;;;;5.43;3.87;;;;;;;9.19;46.79;98726.63;5095616;28;42308;-80
2023/03/05 14:04:46;;;;;;;6.00;4.37;;;;;;;8.90;46.81;98688.72;5077695;28;41413;-80
2023/03/05 14:07:29;;;;;;;7.47;4.00;;;;;;;8.92;47.34;98712.41;5094133;28;40260;-80
2023/03/05 14:09:58;;;;;;;6.27;4.30;;;;;;;8.84;47.96;98704.94;5093925;28;41561;-80
2023/03/05 14:12:34;;;;;;;5.97;4.70;;;;;;;8.74;48.02;98693.22;5077146;28;41694;-80
2023/03/05 14:15:05;;;;;;;5.63;4.03;;;;;;;8.69;47.99;98699.69;5076880;28;42585;-80
2023/03/05 14:17:38;;;;;;;6.03;5.23;;;;;;;8.62;47.79;98693.91;5077319;28;39004;-80
2023/03/05 14:20:17;;;;;;;5.50;4.17;;;;;;;8.38;47.90;98659.22;5092911;28;42278;-80
2023/03/05 14:22:48;;;;;;;5.83;4.00;;;;;;;8.52;48.15;98687.47;5091261;28;42562;-81
2023/03/05 14:25:28;;;;;;;6.03;4.03;;;;;;;8.51;48.13;98677.84;5094032;28;42699;-81
2023/03/05 14:27:58;;;;;;;7.70;4.27;;;;;;;8.59;48.16;98684.38;5076958;28;38843;-80
2023/03/05 14:30:26;;;;;;;6.70;3.97;;;;;;;8.68;47.84;98682.97;5093721;28;41524;-80
2023/03/05 14:32:56;;;;;;;6.03;3.93;;;;;;;8.76;47.73;98680.78;5094916;28;42419;-81
2023/03/05 14:35:26;;;;;;;7.50;4.73;;;;;;;8.79;47.14;98683.22;5076438;28;42020;-81
2023/03/05 14:37:56;;;;;;;5.70;4.13;;;;;;;8.65;47.20;98652.31;5076934;28;40110;-80
2023/03/05 14:40:31;;;;;;;5.73;4.13;;;;;;;8.79;47.19;98672.66;5076763;28;40452;-81
2023/03/05 14:43:02;;;;;;;7.07;4.60;;;;;;;8.84;47.55;98667.13;5090547;28;42767;-80
2023/03/05 14:45:32;;;;;;;5.47;4.07;;;;;;;8.79;47.34;98659.44;5092843;28;42318;-80
2023/03/05 14:48:03;;;;;;;9.37;4.83;;;;;;;8.80;46.87;98653.22;5076559;28;39978;-81
2023/03/05 14:50:34;;;;;;;8.03;4.77;;;;;;;8.87;46.22;98669.59;5093994;28;41717;-80
2023/03/05 14:53:03;;;;;;;7.43;4.90;;;;;;;8.83;45.95;98665.41;5076465;28;44263;-79
2023/03/05 14:55:37;;;;;;;6.00;4.07;;;;;;;8.86;46.27;98663.44;5076265;28;42060;-81
2023/03/05 14:58:12;;;;;;;5.80;4.23;;;;;;;8.94;46.16;98661.19;5092783;28;41027;-80
2023/03/05 15:00:40;;;;;;;8.13;4.77;;;;;;;8.95;45.88;98654.13;5115805;28;43075;-83
2023/03/05 15:03:10;;;;;;;9.23;5.33;;;;;;;8.96;45.86;98655.84;5101640;28;44150;-80
2023/03/05 15:05:39;;;;;;;7.10;4.57;;;;;;;8.82;45.67;98638.16;5093537;28;40888;-81
2023/03/05 15:08:12;;;;;;;8.97;4.90;;;;;;;8.92;45.43;98643.72;5093827;28;39037;-81
2023/03/05 15:10:40;;;;;;;6.53;4.60;;;;;;;8.89;45.59;98639.50;5076150;28;41161;-80
2023/03/05 15:13:10;;;;;;;6.93;4.17;;;;;;;8.83;45.15;98645.13;5092826;28;44036;-81
2023/03/05 15:15:39;;;;;;;8.07;4.80;;;;;;;8.73;45.16;98643.13;5093295;28;43167;-83
2023/03/05 15:18:07;;;;;;;6.60;4.40;;;;;;;8.63;45.29;98638.41;5076698;28;38915;-81
2023/03/05 15:20:34;;;;;;;6.27;4.40;;;;;;;8.54;45.60;98633.63;5093389;28;41774;-81
2023/03/05 15:23:02;;;;;;;7.53;4.80;;;;;;;8.47;45.79;98628.81;5076652;28;43960;-81
2023/03/05 15:25:30;;;;;;;7.60;4.17;;;;;;;8.37;45.61;98627.63;5093629;28;41734;-81
2023/03/05 15:27:58;;;;;;;7.60;4.87;;;;;;;8.28;46.21;98619.25;5076639;28;38827;-80
2023/03/05 15:30:30;;;;;;;7.27;4.10;;;;;;;8.20;46.36;98618.84;5076251;28;43330;-80
2023/03/05 15:33:01;;;;;;;8.00;4.13;;;;;;;7.98;46.57;98597.25;5093312;28;42794;-80
2023/03/05 15:35:29;;;;;;;6.23;4.27;;;;;;;8.08;46.90;98605.50;5092967;28;41807;-79
2023/03/05 15:37:57;;;;;;;6.37;3.93;;;;;;;8.08;47.08;98598.44;5092783;28;38817;-81
2023/03/05 15:40:26;;;;;;;7.57;4.47;;;;;;;8.03;46.87;98594.38;5093067;28;41455;-80
2023/03/05 15:42:54;;;;;;;7.07;4.50;;;;;;;7.91;47.32;98574.81;5076032;28;41737;-82
2023/03/05 15:45:22;;;;;;;6.47;4.30;;;;;;;7.90;46.88;98588.94;5076143;28;42225;-83
2023/03/05 15:47:51;;;;;;;8.10;5.00;;;;;;;7.67;47.27;98547.16;5093029;28;39758;-82
2023/03/05 15:50:20;;;;;;;5.60;3.83;;;;;;;7.71;47.29;98546.94;5092896;28;40913;-81
2023/03/05 15:52:48;;;;;;;5.13;3.70;;;;;;;7.72;47.72;98547.78;5092789;28;42422;-81
2023/03/05 15:55:17;;;;;;;6.53;4.13;;;;;;;7.75;47.73;98537.94;5075816;28;40757;-82
2023/03/05 15:57:47;;;;;;;6.50;4.23;;;;;;;7.65;47.17;98528.00;5092221;28;39184;-82
2023/03/05 16:00:17;;;;;;;8.13;4.23;;;;;;;7.72;47.30;98545.16;5092318;28;41571;-81
2023/03/05 16:02:45;;;;;;;6.50;3.90;;;;;;;7.66;47.52;98542.88;5089268;28;43698;-82
2023/03/05 16:05:14;;;;;;;5.60;3.20;;;;;;;7.49;47.40;98518.28;5088909;28;41469;-84
2023/03/05 16:07:45;;;;;;;6.10;4.60;;;;;;;7.44;47.38;98519.47;5075438;28;39174;-82
2023/03/05 16:10:16;;;;;;;5.30;3.33;;;;;;;7.53;47.35;98546.19;5093310;28;41071;-83
2023/03/05 16:12:46;;;;;;;4.67;3.23;;;;;;;7.50;47.78;98548.97;5090378;28;43893;-83
2023/03/05 16:15:18;;;;;;;5.13;3.53;;;;;;;7.32;47.86;98522.78;5089090;28;42054;-81
2023/03/05 16:17:48;;;;;;;6.07;3.80;;;;;;;7.43;47.98;98542.31;5088491;28;40140;-82
2023/03/05 16:20:18;;;;;;;5.03;3.30;;;;;;;7.39;47.84;98551.34;5071296;28;40556;-81
2023/03/05 16:22:46;;;;;;;5.43;3.60;;;;;;;7.27;48.19;98533.56;5073751;28;42824;-82
2023/03/05 16:25:15;;;;;;;7.53;4.40;;;;;;;7.33;48.46;98551.66;5125568;27;43117;-81
2023/03/05 16:27:43;;;;;;;7.10;4.40;;;;;;;7.27;48.48;98546.75;5091024;28;38734;-80
2023/03/05 16:30:14;;;;;;;6.80;3.50;;;;;;;7.12;48.84;98531.78;5091330;28;41512;-81
2023/03/05 16:32:42;;;;;;;5.17;3.43;;;;;;;7.14;48.67;98543.06;5088115;28;42970;-81
2023/03/05 16:35:11;;;;;;;6.00;3.77;;;;;;;7.06;48.97;98542.59;5072676;28;40976;-82
2023/03/05 16:37:41;;;;;;;7.40;4.43;;;;;;;6.90;49.48;98525.94;5074393;28;38848;-80
2023/03/05 16:40:11;;;;;;;5.33;3.23;;;;;;;6.93;49.34;98531.03;5073525;28;41564;-79
2023/03/05 16:42:38;;;;;;;5.50;3.63;;;;;;;6.87;49.52;98528.75;5069915;28;43353;-80
2023/03/05 16:45:08;;;;;;;5.43;3.90;;;;;;;6.62;49.63;98493.19;5073614;28;41104;-80
2023/03/05 16:47:35;;;;;;;5.43;3.43;;;;;;;6.78;49.69;98517.78;5092458;28;39213;-81
2023/03/05 16:50:04;;;;;;;4.97;3.63;;;;;;;6.74;49.69;98513.59;5073177;28;40566;-81
2023/03/05 16:52:32;;;;;;;5.77;3.70;;;;;;;6.69;50.06;98512.97;5074345;28;42803;-81
2023/03/05 16:55:01;;;;;;;6.00;3.30;;;;;;;6.56;50.28;98490.84;5091273;28;41300;-80
2023/03/05 16:57:28;;;;;;;6.87;3.67;;;;;;;6.62;50.35;98503.72;5091889;28;40905;-80
2023/03/05 16:59:57;;;;;;;5.43;3.50;;;;;;;6.59;50.35;98501.22;5126061;27;41847;-81
2023/03/05 17:02:24;;;;;;;6.30;3.73;;;;;;;6.37;50.49;98474.34;5108335;28;44391;-81
2023/03/05 17:04:54;;;;;;;5.43;3.47;;;;;;;6.53;50.57;98505.97;5074406;28;41533;-81
2023/03/05 17:07:23;;;;;;;5.20;3.60;;;;;;;6.47;51.03;98504.50;5091701;28;40181;-81
2023/03/05 17:09:51;;;;;;;6.17;3.77;;;;;;;6.43;50.68;98506.41;5090908;28;40659;-82
2023/03/05 17:12:21;;;;;;;5.13;3.70;;;;;;;6.29;50.85;98485.28;5073636;28;43632;-82
2023/03/05 17:14:49;;;;;;;8.20;4.33;;;;;;;6.35;51.00;98497.22;5090016;28;42535;-80
2023/03/05 17:17:16;;;;;;;6.03;3.70;;;;;;;6.31;51.33;98486.00;5092161;28;40116;-82
2023/03/05 17:19:44;;;;;;;5.23;3.77;;;;;;;6.06;51.42;98470.63;5091166;28;41722;-82
2023/03/05 17:22:14;;;;;;;4.23;2.93;;;;;;;6.24;51.24;98496.94;5074237;28;44252;-81
2023/03/05 17:24:42;;;;;;;5.53;3.57;;;;;;;6.22;51.53;98501.41;5107884;28;41033;-82
2023/03/05 17:27:11;;;;;;;5.60;3.47;;;;;;;6.18;51.96;98495.47;5092174;28;39984;-81
2023/03/05 17:29:40;;;;;;;5.33;3.60;;;;;;;6.04;51.78;98477.78;5091274;28;42639;-81
2023/03/05 17:32:08;;;;;;;4.00;3.03;;;;;;;6.08;51.77;98484.56;5091117;28;41650;-81
2023/03/05 17:34:36;;;;;;;5.70;3.33;;;;;;;6.01;52.27;98485.81;5092305;28;41625;-81
2023/03/05 17:37:05;;;;;;;4.90;3.83;;;;;;;6.10;52.14;98503.72;5077794;28;41003;-82
2023/03/05 17:39:33;;;;;;;6.17;3.60;;;;;;;6.08;52.01;98500.31;5095324;28;42640;-81
2023/03/05 17:42:02;;;;;;;5.93;3.60;;;;;;;5.71;52.44;98445.25;5095653;28;42855;-82
2023/03/05 17:44:30;;;;;;;5.87;4.20;;;;;;;5.97;52.15;98489.50;5077348;28;41442;-82
2023/03/05 17:46:59;;;;;;;5.03;3.57;;;;;;;5.99;52.32;98495.53;5077497;28;40217;-81
2023/03/05 17:49:27;;;;;;;5.63;3.90;;;;;;;6.03;52.63;98510.25;5094489;28;41729;-81
2023/03/05 17:51:54;;;;;;;4.57;3.30;;;;;;;6.01;52.68;98498.94;5111488;28;41642;-82
2023/03/05 17:54:22;;;;;;;5.73;3.50;;;;;;;5.91;52.79;98491.59;5128938;27;43210;-82
2023/03/05 17:56:53;;;;;;;6.73;3.90;;;;;;;5.99;52.95;98500.78;5077538;28;39527;-82
2023/03/05 17:59:21;;;;;;;6.00;3.63;;;;;;;5.92;52.73;98494.16;5077254;28;41805;-82
2023/03/05 18:01:49;;;;;;;7.53;3.70;;;;;;;5.97;52.94;98501.78;5095454;28;42576;-82
2023/03/05 18:04:19;;;;;;;6.17;3.97;;;;;;;5.96;52.88;98508.81;5094395;28;42491;-82
2023/03/05 18:06:46;;;;;;;5.73;4.00;;;;;;;5.85;53.30;98497.97;5094246;28;40433;-84
2023/03/05 18:09:14;;;;;;;8.37;4.13;;;;;;;5.94;53.28;98507.19;5092889;28;40635;-82
2023/03/05 18:11:42;;;;;;;7.10;4.27;;;;;;;5.89;53.34;98510.06;5094596;28;43116;-82
2023/03/05 18:14:09;;;;;;;5.17;3.70;;;;;;;5.85;53.47;98491.84;5091796;28;42787;-82
2023/03/05 18:16:37;;;;;;;5.03;3.87;;;;;;;5.73;53.71;98473.13;5075859;28;38801;-82
2023/03/05 18:19:05;;;;;;;6.87;4.23;;;;;;;5.82;53.33;98490.22;5092656;28;41771;-82
2023/03/05 18:21:34;;;;;;;7.37;4.37;;;;;;;5.85;53.76;98491.84;5076027;28;42389;-83